sensor_id;sensor_type;location;lat;lon;timestamp;P1;durP1;ratioP1;P2;durP2;ratioP2
15905;SDS011;8051;50.820;4.884;2023-08-31T00:00:48;9.60;;;9.10;;
15905;SDS011;8051;50.820;4.884;2023-08-31T00:03:16;9.73;;;9.13;;
15905;SDS011;8051;50.820;4.884;2023-08-31T00:05:44;10.20;;;9.50;;
15905;SDS011;8051;50.820;4.884;2023-08-31T00:08:13;10.67;;;9.87;;
15905;SDS011;8051;50.820;4.884;2023-08-31T00:10:42;10.37;;;9.53;;
15905;SDS011;8051;50.820;4.884;2023-08-31T00:13:10;8.53;;;8.03;;
15905;SDS011;8051;50.820;4.884;2023-08-31T00:15:38;10.07;;;9.57;;
15905;SDS011;8051;50.820;4.884;2023-08-31T00:18:06;9.57;;;8.87;;
15905;SDS011;8051;50.820;4.884;2023-08-31T00:20:35;10.23;;;9.43;;
15905;SDS011;8051;50.820;4.884;2023-08-31T00:23:03;10.30;;;9.67;;
15905;SDS011;8051;50.820;4.884;2023-08-31T00:25:32;10.33;;;9.73;;
15905;SDS011;8051;50.820;4.884;2023-08-31T00:27:59;8.80;;;8.20;;
15905;SDS011;8051;50.820;4.884;2023-08-31T00:30:30;9.47;;;8.97;;
15905;SDS011;8051;50.820;4.884;2023-08-31T00:32:57;9.30;;;8.77;;
15905;SDS011;8051;50.820;4.884;2023-08-31T00:35:26;9.60;;;9.00;;
15905;SDS011;8051;50.820;4.884;2023-08-31T00:37:53;9.40;;;8.90;;
15905;SDS011;8051;50.820;4.884;2023-08-31T00:40:23;9.90;;;9.40;;
15905;SDS011;8051;50.820;4.884;2023-08-31T00:42:52;9.93;;;9.33;;
15905;SDS011;8051;50.820;4.884;2023-08-31T00:45:20;10.20;;;9.40;;
15905;SDS011;8051;50.820;4.884;2023-08-31T00:47:48;10.50;;;9.70;;
15905;SDS011;8051;50.820;4.884;2023-08-31T00:50:16;10.00;;;9.50;;
15905;SDS011;8051;50.820;4.884;2023-08-31T00:52:44;10.63;;;9.90;;
15905;SDS011;8051;50.820;4.884;2023-08-31T00:55:12;10.77;;;10.07;;
15905;SDS011;8051;50.820;4.884;2023-08-31T00:57:43;11.20;;;10.40;;
15905;SDS011;8051;50.820;4.884;2023-08-31T01:00:12;10.53;;;9.90;;
15905;SDS011;8051;50.820;4.884;2023-08-31T01:02:51;11.07;;;10.33;;
15905;SDS011;8051;50.820;4.884;2023-08-31T01:05:33;10.03;;;9.40;;
15905;SDS011;8051;50.820;4.884;2023-08-31T01:08:12;10.43;;;9.73;;
15905;SDS011;8051;50.820;4.884;2023-08-31T01:10:50;10.90;;;9.90;;
15905;SDS011;8051;50.820;4.884;2023-08-31T01:13:25;10.87;;;10.00;;
15905;SDS011;8051;50.820;4.884;2023-08-31T01:16:00;10.53;;;9.53;;
15905;SDS011;8051;50.820;4.884;2023-08-31T01:18:32;9.33;;;8.53;;
15905;SDS011;8051;50.820;4.884;2023-08-31T01:21:02;12.00;;;10.87;;
15905;SDS011;8051;50.820;4.884;2023-08-31T01:23:54;11.20;;;10.27;;
15905;SDS011;8051;50.820;4.884;2023-08-31T01:26:23;11.10;;;10.13;;
15905;SDS011;8051;50.820;4.884;2023-08-31T01:28:51;11.27;;;10.37;;
15905;SDS011;8051;50.820;4.884;2023-08-31T01:31:19;10.57;;;9.57;;
15905;SDS011;8051;50.820;4.884;2023-08-31T01:33:47;9.67;;;8.97;;
15905;SDS011;8051;50.820;4.884;2023-08-31T01:36:17;11.50;;;10.50;;
15905;SDS011;8051;50.820;4.884;2023-08-31T01:38:50;11.33;;;10.27;;
15905;SDS011;8051;50.820;4.884;2023-08-31T01:41:22;11.10;;;10.20;;
15905;SDS011;8051;50.820;4.884;2023-08-31T01:43:52;10.30;;;9.40;;
15905;SDS011;8051;50.820;4.884;2023-08-31T01:46:20;11.53;;;10.53;;
15905;SDS011;8051;50.820;4.884;2023-08-31T01:48:48;11.30;;;10.20;;
15905;SDS011;8051;50.820;4.884;2023-08-31T01:51:16;11.57;;;10.40;;
15905;SDS011;8051;50.820;4.884;2023-08-31T01:53:43;10.80;;;9.80;;
15905;SDS011;8051;50.820;4.884;2023-08-31T01:56:12;10.23;;;9.43;;
15905;SDS011;8051;50.820;4.884;2023-08-31T01:58:40;10.77;;;9.70;;
15905;SDS011;8051;50.820;4.884;2023-08-31T02:01:07;17.17;;;11.00;;
15905;SDS011;8051;50.820;4.884;2023-08-31T02:03:35;12.17;;;10.97;;
15905;SDS011;8051;50.820;4.884;2023-08-31T02:06:03;11.93;;;10.93;;
15905;SDS011;8051;50.820;4.884;2023-08-31T02:08:30;10.63;;;9.80;;
15905;SDS011;8051;50.820;4.884;2023-08-31T02:10:58;12.47;;;11.30;;
15905;SDS011;8051;50.820;4.884;2023-08-31T02:13:27;11.30;;;10.27;;
15905;SDS011;8051;50.820;4.884;2023-08-31T02:15:56;11.57;;;9.57;;
15905;SDS011;8051;50.820;4.884;2023-08-31T02:18:23;10.87;;;9.83;;
15905;SDS011;8051;50.820;4.884;2023-08-31T02:20:51;13.53;;;9.73;;
15905;SDS011;8051;50.820;4.884;2023-08-31T02:23:19;12.50;;;8.87;;
15905;SDS011;8051;50.820;4.884;2023-08-31T02:25:47;10.87;;;8.97;;
15905;SDS011;8051;50.820;4.884;2023-08-31T02:28:14;11.23;;;10.23;;
15905;SDS011;8051;50.820;4.884;2023-08-31T02:30:45;12.13;;;10.37;;
15905;SDS011;8051;50.820;4.884;2023-08-31T02:33:13;11.97;;;10.90;;
15905;SDS011;8051;50.820;4.884;2023-08-31T02:35:40;11.47;;;10.47;;
15905;SDS011;8051;50.820;4.884;2023-08-31T02:38:08;11.50;;;10.30;;
15905;SDS011;8051;50.820;4.884;2023-08-31T02:40:35;10.63;;;9.53;;
15905;SDS011;8051;50.820;4.884;2023-08-31T02:43:03;12.80;;;10.20;;
15905;SDS011;8051;50.820;4.884;2023-08-31T02:45:30;9.80;;;8.90;;
15905;SDS011;8051;50.820;4.884;2023-08-31T02:47:59;11.83;;;9.03;;
15905;SDS011;8051;50.820;4.884;2023-08-31T02:50:28;11.20;;;8.90;;
15905;SDS011;8051;50.820;4.884;2023-08-31T02:52:56;11.87;;;9.40;;
15905;SDS011;8051;50.820;4.884;2023-08-31T02:55:23;9.63;;;8.73;;
15905;SDS011;8051;50.820;4.884;2023-08-31T02:57:51;10.63;;;9.57;;
15905;SDS011;8051;50.820;4.884;2023-08-31T03:00:18;10.20;;;8.03;;
15905;SDS011;8051;50.820;4.884;2023-08-31T03:02:47;13.00;;;10.07;;
15905;SDS011;8051;50.820;4.884;2023-08-31T03:05:16;12.90;;;9.73;;
15905;SDS011;8051;50.820;4.884;2023-08-31T03:07:44;10.03;;;8.87;;
15905;SDS011;8051;50.820;4.884;2023-08-31T03:10:12;13.40;;;9.10;;
15905;SDS011;8051;50.820;4.884;2023-08-31T03:12:39;10.40;;;9.33;;
15905;SDS011;8051;50.820;4.884;2023-08-31T03:15:07;9.53;;;8.57;;
15905;SDS011;8051;50.820;4.884;2023-08-31T03:17:35;11.30;;;9.03;;
15905;SDS011;8051;50.820;4.884;2023-08-31T03:20:03;10.17;;;8.90;;
15905;SDS011;8051;50.820;4.884;2023-08-31T03:22:33;12.03;;;8.87;;
15905;SDS011;8051;50.820;4.884;2023-08-31T03:25:00;13.30;;;8.50;;
15905;SDS011;8051;50.820;4.884;2023-08-31T03:27:28;12.57;;;8.80;;
15905;SDS011;8051;50.820;4.884;2023-08-31T03:29:55;9.60;;;8.53;;
15905;SDS011;8051;50.820;4.884;2023-08-31T03:32:23;9.07;;;8.17;;
15905;SDS011;8051;50.820;4.884;2023-08-31T03:34:50;12.80;;;9.33;;
15905;SDS011;8051;50.820;4.884;2023-08-31T03:37:18;10.33;;;9.03;;
15905;SDS011;8051;50.820;4.884;2023-08-31T03:39:48;9.33;;;8.03;;
15905;SDS011;8051;50.820;4.884;2023-08-31T03:42:16;15.80;;;9.20;;
15905;SDS011;8051;50.820;4.884;2023-08-31T03:44:43;11.87;;;9.33;;
15905;SDS011;8051;50.820;4.884;2023-08-31T03:47:10;14.53;;;9.27;;
15905;SDS011;8051;50.820;4.884;2023-08-31T03:49:38;9.50;;;8.50;;
15905;SDS011;8051;50.820;4.884;2023-08-31T03:52:05;10.07;;;9.17;;
15905;SDS011;8051;50.820;4.884;2023-08-31T03:54:33;8.30;;;7.40;;
15905;SDS011;8051;50.820;4.884;2023-08-31T03:57:02;11.87;;;10.73;;
15905;SDS011;8051;50.820;4.884;2023-08-31T03:59:29;15.27;;;9.27;;
15905;SDS011;8051;50.820;4.884;2023-08-31T04:01:57;12.20;;;8.63;;
15905;SDS011;8051;50.820;4.884;2023-08-31T04:04:25;9.60;;;8.50;;
15905;SDS011;8051;50.820;4.884;2023-08-31T04:06:52;10.97;;;9.97;;
15905;SDS011;8051;50.820;4.884;2023-08-31T04:09:20;15.37;;;9.10;;
15905;SDS011;8051;50.820;4.884;2023-08-31T04:11:48;8.97;;;7.80;;
15905;SDS011;8051;50.820;4.884;2023-08-31T04:14:17;10.13;;;9.13;;
15905;SDS011;8051;50.820;4.884;2023-08-31T04:16:45;12.67;;;8.97;;
15905;SDS011;8051;50.820;4.884;2023-08-31T04:19:15;9.10;;;8.20;;
15905;SDS011;8051;50.820;4.884;2023-08-31T04:21:43;9.40;;;8.50;;
15905;SDS011;8051;50.820;4.884;2023-08-31T04:24:10;11.53;;;9.10;;
15905;SDS011;8051;50.820;4.884;2023-08-31T04:26:38;10.57;;;8.20;;
15905;SDS011;8051;50.820;4.884;2023-08-31T04:29:05;12.63;;;7.20;;
15905;SDS011;8051;50.820;4.884;2023-08-31T04:31:34;10.47;;;8.23;;
15905;SDS011;8051;50.820;4.884;2023-08-31T04:34:03;10.07;;;8.03;;
15905;SDS011;8051;50.820;4.884;2023-08-31T04:36:30;9.50;;;8.60;;
15905;SDS011;8051;50.820;4.884;2023-08-31T04:38:58;13.27;;;8.40;;
15905;SDS011;8051;50.820;4.884;2023-08-31T04:41:25;9.73;;;8.73;;
15905;SDS011;8051;50.820;4.884;2023-08-31T04:43:53;7.93;;;7.13;;
15905;SDS011;8051;50.820;4.884;2023-08-31T04:46:20;10.27;;;6.97;;
15905;SDS011;8051;50.820;4.884;2023-08-31T04:48:49;7.90;;;6.93;;
15905;SDS011;8051;50.820;4.884;2023-08-31T04:51:33;7.40;;;6.23;;
15905;SDS011;8051;50.820;4.884;2023-08-31T04:54:02;8.93;;;6.80;;
15905;SDS011;8051;50.820;4.884;2023-08-31T04:56:30;8.20;;;6.27;;
15905;SDS011;8051;50.820;4.884;2023-08-31T04:58:59;7.60;;;6.77;;
15905;SDS011;8051;50.820;4.884;2023-08-31T05:01:28;12.23;;;7.43;;
15905;SDS011;8051;50.820;4.884;2023-08-31T05:03:56;14.93;;;8.57;;
15905;SDS011;8051;50.820;4.884;2023-08-31T05:06:24;9.77;;;7.33;;
15905;SDS011;8051;50.820;4.884;2023-08-31T05:08:51;8.83;;;7.53;;
15905;SDS011;8051;50.820;4.884;2023-08-31T05:11:19;9.67;;;7.33;;
15905;SDS011;8051;50.820;4.884;2023-08-31T05:13:46;9.27;;;8.17;;
15905;SDS011;8051;50.820;4.884;2023-08-31T05:16:14;8.20;;;6.70;;
15905;SDS011;8051;50.820;4.884;2023-08-31T05:18:41;9.10;;;6.97;;
15905;SDS011;8051;50.820;4.884;2023-08-31T05:21:10;8.57;;;7.80;;
15905;SDS011;8051;50.820;4.884;2023-08-31T05:23:38;9.03;;;7.20;;
15905;SDS011;8051;50.820;4.884;2023-08-31T05:26:06;8.63;;;7.80;;
15905;SDS011;8051;50.820;4.884;2023-08-31T05:28:33;10.23;;;7.30;;
15905;SDS011;8051;50.820;4.884;2023-08-31T05:31:01;7.93;;;7.07;;
15905;SDS011;8051;50.820;4.884;2023-08-31T05:33:30;7.20;;;6.60;;
15905;SDS011;8051;50.820;4.884;2023-08-31T05:36:00;8.13;;;6.50;;
15905;SDS011;8051;50.820;4.884;2023-08-31T05:38:30;8.80;;;8.00;;
15905;SDS011;8051;50.820;4.884;2023-08-31T05:41:05;7.97;;;7.10;;
15905;SDS011;8051;50.820;4.884;2023-08-31T05:43:33;8.53;;;7.53;;
15905;SDS011;8051;50.820;4.884;2023-08-31T05:46:01;8.93;;;7.60;;
15905;SDS011;8051;50.820;4.884;2023-08-31T05:48:29;8.80;;;7.03;;
15905;SDS011;8051;50.820;4.884;2023-08-31T05:50:57;6.90;;;6.33;;
15905;SDS011;8051;50.820;4.884;2023-08-31T05:53:24;12.03;;;8.37;;
15905;SDS011;8051;50.820;4.884;2023-08-31T05:55:54;13.27;;;8.30;;
15905;SDS011;8051;50.820;4.884;2023-08-31T05:58:28;7.93;;;7.20;;
15905;SDS011;8051;50.820;4.884;2023-08-31T06:00:56;8.20;;;7.50;;
15905;SDS011;8051;50.820;4.884;2023-08-31T06:03:23;9.13;;;8.33;;
15905;SDS011;8051;50.820;4.884;2023-08-31T06:05:51;8.33;;;7.57;;
15905;SDS011;8051;50.820;4.884;2023-08-31T06:08:18;10.00;;;9.17;;
15905;SDS011;8051;50.820;4.884;2023-08-31T06:10:46;10.17;;;8.30;;
15905;SDS011;8051;50.820;4.884;2023-08-31T06:13:15;9.60;;;8.80;;
15905;SDS011;8051;50.820;4.884;2023-08-31T06:15:42;14.23;;;10.10;;
15905;SDS011;8051;50.820;4.884;2023-08-31T06:18:10;11.73;;;10.10;;
15905;SDS011;8051;50.820;4.884;2023-08-31T06:20:37;14.33;;;10.40;;
15905;SDS011;8051;50.820;4.884;2023-08-31T06:23:05;10.57;;;9.57;;
15905;SDS011;8051;50.820;4.884;2023-08-31T06:25:33;10.70;;;9.80;;
15905;SDS011;8051;50.820;4.884;2023-08-31T06:28:00;11.73;;;10.03;;
15905;SDS011;8051;50.820;4.884;2023-08-31T06:30:31;10.40;;;9.60;;
15905;SDS011;8051;50.820;4.884;2023-08-31T06:32:59;11.70;;;10.70;;
15905;SDS011;8051;50.820;4.884;2023-08-31T06:35:26;17.20;;;10.97;;
15905;SDS011;8051;50.820;4.884;2023-08-31T06:37:53;12.67;;;11.47;;
15905;SDS011;8051;50.820;4.884;2023-08-31T06:40:21;15.63;;;12.30;;
15905;SDS011;8051;50.820;4.884;2023-08-31T06:42:49;12.27;;;11.07;;
15905;SDS011;8051;50.820;4.884;2023-08-31T06:45:16;11.60;;;10.57;;
15905;SDS011;8051;50.820;4.884;2023-08-31T06:47:45;12.53;;;11.33;;
15905;SDS011;8051;50.820;4.884;2023-08-31T06:50:13;12.23;;;11.13;;
15905;SDS011;8051;50.820;4.884;2023-08-31T06:52:41;14.73;;;12.80;;
15905;SDS011;8051;50.820;4.884;2023-08-31T06:55:11;11.80;;;10.63;;
15905;SDS011;8051;50.820;4.884;2023-08-31T06:57:39;13.70;;;12.40;;
15905;SDS011;8051;50.820;4.884;2023-08-31T07:00:07;12.30;;;11.10;;
15905;SDS011;8051;50.820;4.884;2023-08-31T07:02:38;15.67;;;12.73;;
15905;SDS011;8051;50.820;4.884;2023-08-31T07:05:09;19.87;;;13.60;;
15905;SDS011;8051;50.820;4.884;2023-08-31T07:07:37;14.73;;;13.37;;
15905;SDS011;8051;50.820;4.884;2023-08-31T07:10:05;14.37;;;12.70;;
15905;SDS011;8051;50.820;4.884;2023-08-31T07:12:33;16.20;;;14.63;;
15905;SDS011;8051;50.820;4.884;2023-08-31T07:15:01;16.53;;;14.37;;
15905;SDS011;8051;50.820;4.884;2023-08-31T07:17:29;16.17;;;14.93;;
15905;SDS011;8051;50.820;4.884;2023-08-31T07:19:56;16.43;;;15.23;;
15905;SDS011;8051;50.820;4.884;2023-08-31T07:22:25;17.90;;;16.20;;
15905;SDS011;8051;50.820;4.884;2023-08-31T07:24:52;17.20;;;15.23;;
15905;SDS011;8051;50.820;4.884;2023-08-31T07:27:20;17.80;;;16.33;;
15905;SDS011;8051;50.820;4.884;2023-08-31T07:29:47;19.03;;;17.27;;
15905;SDS011;8051;50.820;4.884;2023-08-31T07:32:15;20.33;;;17.20;;
15905;SDS011;8051;50.820;4.884;2023-08-31T07:34:42;20.70;;;18.77;;
15905;SDS011;8051;50.820;4.884;2023-08-31T07:37:10;20.07;;;18.13;;
15905;SDS011;8051;50.820;4.884;2023-08-31T07:39:39;20.87;;;18.93;;
15905;SDS011;8051;50.820;4.884;2023-08-31T07:42:06;19.57;;;17.87;;
15905;SDS011;8051;50.820;4.884;2023-08-31T07:44:34;21.43;;;19.23;;
15905;SDS011;8051;50.820;4.884;2023-08-31T07:47:01;21.33;;;19.20;;
15905;SDS011;8051;50.820;4.884;2023-08-31T07:49:29;19.77;;;18.27;;
15905;SDS011;8051;50.820;4.884;2023-08-31T07:51:56;19.90;;;18.03;;
15905;SDS011;8051;50.820;4.884;2023-08-31T07:54:24;21.43;;;19.40;;
15905;SDS011;8051;50.820;4.884;2023-08-31T07:56:53;21.40;;;19.40;;
15905;SDS011;8051;50.820;4.884;2023-08-31T07:59:20;26.17;;;20.03;;
15905;SDS011;8051;50.820;4.884;2023-08-31T08:01:47;22.10;;;19.80;;
15905;SDS011;8051;50.820;4.884;2023-08-31T08:04:15;22.63;;;20.50;;
15905;SDS011;8051;50.820;4.884;2023-08-31T08:06:44;22.73;;;20.43;;
15905;SDS011;8051;50.820;4.884;2023-08-31T08:09:12;24.53;;;21.07;;
15905;SDS011;8051;50.820;4.884;2023-08-31T08:11:40;22.57;;;20.53;;
15905;SDS011;8051;50.820;4.884;2023-08-31T08:14:10;22.13;;;20.33;;
15905;SDS011;8051;50.820;4.884;2023-08-31T08:16:37;23.57;;;21.47;;
15905;SDS011;8051;50.820;4.884;2023-08-31T08:19:05;22.20;;;20.47;;
15905;SDS011;8051;50.820;4.884;2023-08-31T08:21:33;23.20;;;21.13;;
15905;SDS011;8051;50.820;4.884;2023-08-31T08:24:01;23.33;;;21.20;;
15905;SDS011;8051;50.820;4.884;2023-08-31T08:26:29;22.13;;;20.47;;
15905;SDS011;8051;50.820;4.884;2023-08-31T08:28:56;23.43;;;21.17;;
15905;SDS011;8051;50.820;4.884;2023-08-31T08:31:25;23.07;;;21.00;;
15905;SDS011;8051;50.820;4.884;2023-08-31T08:33:52;23.63;;;21.53;;
15905;SDS011;8051;50.820;4.884;2023-08-31T08:36:19;22.90;;;21.10;;
15905;SDS011;8051;50.820;4.884;2023-08-31T08:38:47;24.13;;;22.10;;
15905;SDS011;8051;50.820;4.884;2023-08-31T08:41:14;24.10;;;22.37;;
15905;SDS011;8051;50.820;4.884;2023-08-31T08:43:44;24.50;;;22.47;;
15905;SDS011;8051;50.820;4.884;2023-08-31T08:46:13;24.70;;;21.57;;
15905;SDS011;8051;50.820;4.884;2023-08-31T08:48:42;24.30;;;22.27;;
15905;SDS011;8051;50.820;4.884;2023-08-31T08:51:10;23.93;;;22.03;;
15905;SDS011;8051;50.820;4.884;2023-08-31T08:53:39;24.80;;;22.40;;
15905;SDS011;8051;50.820;4.884;2023-08-31T08:56:09;24.73;;;22.73;;
15905;SDS011;8051;50.820;4.884;2023-08-31T08:58:36;24.87;;;22.77;;
15905;SDS011;8051;50.820;4.884;2023-08-31T09:01:04;24.23;;;21.73;;
15905;SDS011;8051;50.820;4.884;2023-08-31T09:03:34;23.50;;;21.77;;
15905;SDS011;8051;50.820;4.884;2023-08-31T09:06:03;24.20;;;22.23;;
15905;SDS011;8051;50.820;4.884;2023-08-31T09:08:33;26.50;;;24.47;;
15905;SDS011;8051;50.820;4.884;2023-08-31T09:11:02;25.13;;;22.80;;
15905;SDS011;8051;50.820;4.884;2023-08-31T09:13:29;25.50;;;23.20;;
15905;SDS011;8051;50.820;4.884;2023-08-31T09:15:58;25.37;;;22.83;;
15905;SDS011;8051;50.820;4.884;2023-08-31T09:18:27;25.97;;;23.93;;
15905;SDS011;8051;50.820;4.884;2023-08-31T09:20:55;24.80;;;22.83;;
15905;SDS011;8051;50.820;4.884;2023-08-31T09:23:24;26.83;;;24.37;;
15905;SDS011;8051;50.820;4.884;2023-08-31T09:25:52;25.47;;;23.30;;
15905;SDS011;8051;50.820;4.884;2023-08-31T09:28:21;24.70;;;22.83;;
15905;SDS011;8051;50.820;4.884;2023-08-31T09:30:51;25.40;;;23.40;;
15905;SDS011;8051;50.820;4.884;2023-08-31T09:33:19;24.60;;;22.77;;
15905;SDS011;8051;50.820;4.884;2023-08-31T09:35:48;24.90;;;23.10;;
15905;SDS011;8051;50.820;4.884;2023-08-31T09:38:17;23.77;;;22.07;;
15905;SDS011;8051;50.820;4.884;2023-08-31T09:40:46;24.47;;;22.87;;
15905;SDS011;8051;50.820;4.884;2023-08-31T09:43:18;24.53;;;22.63;;
15905;SDS011;8051;50.820;4.884;2023-08-31T09:45:47;24.30;;;22.40;;
15905;SDS011;8051;50.820;4.884;2023-08-31T09:48:15;24.87;;;23.23;;
15905;SDS011;8051;50.820;4.884;2023-08-31T09:50:43;24.40;;;22.50;;
15905;SDS011;8051;50.820;4.884;2023-08-31T09:53:12;23.97;;;22.37;;
15905;SDS011;8051;50.820;4.884;2023-08-31T09:55:43;25.47;;;23.47;;
15905;SDS011;8051;50.820;4.884;2023-08-31T09:58:12;24.73;;;22.97;;
15905;SDS011;8051;50.820;4.884;2023-08-31T10:00:42;26.47;;;24.27;;
15905;SDS011;8051;50.820;4.884;2023-08-31T10:03:10;26.53;;;24.70;;
15905;SDS011;8051;50.820;4.884;2023-08-31T10:05:40;25.77;;;23.97;;
15905;SDS011;8051;50.820;4.884;2023-08-31T10:08:10;26.17;;;24.17;;
15905;SDS011;8051;50.820;4.884;2023-08-31T10:10:38;26.30;;;24.50;;
15905;SDS011;8051;50.820;4.884;2023-08-31T10:13:06;25.50;;;23.50;;
15905;SDS011;8051;50.820;4.884;2023-08-31T10:15:36;24.20;;;22.53;;
15905;SDS011;8051;50.820;4.884;2023-08-31T10:18:05;25.67;;;23.60;;
15905;SDS011;8051;50.820;4.884;2023-08-31T10:20:33;26.30;;;24.50;;
15905;SDS011;8051;50.820;4.884;2023-08-31T10:23:02;26.30;;;24.23;;
15905;SDS011;8051;50.820;4.884;2023-08-31T10:28:30;25.30;;;23.60;;
15905;SDS011;8051;50.820;4.884;2023-08-31T10:31:09;27.07;;;24.73;;
15905;SDS011;8051;50.820;4.884;2023-08-31T10:33:42;24.90;;;23.20;;
15905;SDS011;8051;50.820;4.884;2023-08-31T10:36:11;25.40;;;23.63;;
15905;SDS011;8051;50.820;4.884;2023-08-31T10:38:39;25.73;;;24.10;;
15905;SDS011;8051;50.820;4.884;2023-08-31T10:41:18;23.73;;;22.10;;
15905;SDS011;8051;50.820;4.884;2023-08-31T10:43:47;25.37;;;23.07;;
15905;SDS011;8051;50.820;4.884;2023-08-31T10:46:25;23.53;;;21.93;;
15905;SDS011;8051;50.820;4.884;2023-08-31T10:48:54;23.20;;;21.80;;
15905;SDS011;8051;50.820;4.884;2023-08-31T10:51:23;26.80;;;24.83;;
15905;SDS011;8051;50.820;4.884;2023-08-31T10:53:52;24.90;;;23.00;;
15905;SDS011;8051;50.820;4.884;2023-08-31T10:56:30;24.13;;;22.43;;
15905;SDS011;8051;50.820;4.884;2023-08-31T10:58:58;25.00;;;23.10;;
15905;SDS011;8051;50.820;4.884;2023-08-31T11:04:28;24.60;;;22.97;;
15905;SDS011;8051;50.820;4.884;2023-08-31T11:07:16;23.33;;;21.73;;
15905;SDS011;8051;50.820;4.884;2023-08-31T11:09:44;23.90;;;22.40;;
15905;SDS011;8051;50.820;4.884;2023-08-31T11:12:13;24.10;;;22.30;;
15905;SDS011;8051;50.820;4.884;2023-08-31T11:14:40;24.63;;;22.50;;
15905;SDS011;8051;50.820;4.884;2023-08-31T11:17:09;21.80;;;20.30;;
15905;SDS011;8051;50.820;4.884;2023-08-31T11:19:37;23.13;;;21.60;;
15905;SDS011;8051;50.820;4.884;2023-08-31T11:22:05;23.97;;;22.33;;
15905;SDS011;8051;50.820;4.884;2023-08-31T11:24:35;21.63;;;20.30;;
15905;SDS011;8051;50.820;4.884;2023-08-31T11:27:05;20.43;;;19.00;;
15905;SDS011;8051;50.820;4.884;2023-08-31T11:29:36;20.67;;;18.93;;
15905;SDS011;8051;50.820;4.884;2023-08-31T11:32:05;20.80;;;19.43;;
15905;SDS011;8051;50.820;4.884;2023-08-31T11:34:34;21.57;;;20.10;;
15905;SDS011;8051;50.820;4.884;2023-08-31T11:37:06;20.90;;;19.57;;
15905;SDS011;8051;50.820;4.884;2023-08-31T11:39:34;23.03;;;21.20;;
15905;SDS011;8051;50.820;4.884;2023-08-31T11:42:03;23.07;;;21.37;;
15905;SDS011;8051;50.820;4.884;2023-08-31T11:44:31;21.53;;;20.13;;
15905;SDS011;8051;50.820;4.884;2023-08-31T11:46:59;26.40;;;24.57;;
15905;SDS011;8051;50.820;4.884;2023-08-31T11:49:27;21.43;;;20.30;;
15905;SDS011;8051;50.820;4.884;2023-08-31T11:51:56;22.60;;;21.20;;
15905;SDS011;8051;50.820;4.884;2023-08-31T11:54:24;24.00;;;22.40;;
15905;SDS011;8051;50.820;4.884;2023-08-31T11:56:52;23.60;;;22.07;;
15905;SDS011;8051;50.820;4.884;2023-08-31T11:59:20;25.27;;;23.50;;
15905;SDS011;8051;50.820;4.884;2023-08-31T12:01:49;23.60;;;22.13;;
15905;SDS011;8051;50.820;4.884;2023-08-31T12:04:19;26.03;;;24.10;;
15905;SDS011;8051;50.820;4.884;2023-08-31T12:06:49;23.17;;;21.80;;
15905;SDS011;8051;50.820;4.884;2023-08-31T12:09:20;22.00;;;20.70;;
15905;SDS011;8051;50.820;4.884;2023-08-31T12:11:50;23.23;;;21.70;;
15905;SDS011;8051;50.820;4.884;2023-08-31T12:14:19;20.93;;;19.73;;
15905;SDS011;8051;50.820;4.884;2023-08-31T12:16:47;21.80;;;20.40;;
15905;SDS011;8051;50.820;4.884;2023-08-31T12:19:16;23.70;;;22.20;;
15905;SDS011;8051;50.820;4.884;2023-08-31T12:21:44;21.63;;;20.33;;
15905;SDS011;8051;50.820;4.884;2023-08-31T12:24:12;20.60;;;19.40;;
15905;SDS011;8051;50.820;4.884;2023-08-31T12:26:43;20.67;;;19.43;;
15905;SDS011;8051;50.820;4.884;2023-08-31T12:29:11;19.93;;;18.63;;
15905;SDS011;8051;50.820;4.884;2023-08-31T12:31:38;19.33;;;18.23;;
15905;SDS011;8051;50.820;4.884;2023-08-31T12:34:06;20.63;;;19.27;;
15905;SDS011;8051;50.820;4.884;2023-08-31T12:36:33;20.30;;;19.00;;
15905;SDS011;8051;50.820;4.884;2023-08-31T12:39:02;18.60;;;17.30;;
15905;SDS011;8051;50.820;4.884;2023-08-31T12:41:34;19.80;;;18.50;;
15905;SDS011;8051;50.820;4.884;2023-08-31T12:44:04;20.73;;;19.40;;
15905;SDS011;8051;50.820;4.884;2023-08-31T12:46:32;22.20;;;20.60;;
15905;SDS011;8051;50.820;4.884;2023-08-31T12:49:00;21.07;;;19.87;;
15905;SDS011;8051;50.820;4.884;2023-08-31T12:51:29;23.40;;;21.80;;
15905;SDS011;8051;50.820;4.884;2023-08-31T12:53:57;21.30;;;20.10;;
15905;SDS011;8051;50.820;4.884;2023-08-31T12:56:24;18.73;;;17.67;;
15905;SDS011;8051;50.820;4.884;2023-08-31T12:58:53;18.73;;;17.20;;
15905;SDS011;8051;50.820;4.884;2023-08-31T13:01:22;20.13;;;18.77;;
15905;SDS011;8051;50.820;4.884;2023-08-31T13:03:50;19.67;;;18.47;;
15905;SDS011;8051;50.820;4.884;2023-08-31T13:06:18;19.90;;;18.43;;
15905;SDS011;8051;50.820;4.884;2023-08-31T13:08:46;18.93;;;17.73;;
15905;SDS011;8051;50.820;4.884;2023-08-31T13:11:13;19.73;;;18.00;;
15905;SDS011;8051;50.820;4.884;2023-08-31T13:13:42;19.23;;;17.77;;
15905;SDS011;8051;50.820;4.884;2023-08-31T13:16:09;21.27;;;19.93;;
15905;SDS011;8051;50.820;4.884;2023-08-31T13:18:38;20.37;;;19.27;;
15905;SDS011;8051;50.820;4.884;2023-08-31T13:21:06;21.10;;;19.47;;
15905;SDS011;8051;50.820;4.884;2023-08-31T13:23:33;18.63;;;17.53;;
15905;SDS011;8051;50.820;4.884;2023-08-31T13:26:01;20.10;;;18.90;;
15905;SDS011;8051;50.820;4.884;2023-08-31T13:28:28;20.20;;;18.80;;
15905;SDS011;8051;50.820;4.884;2023-08-31T13:30:57;20.47;;;19.37;;
15905;SDS011;8051;50.820;4.884;2023-08-31T13:33:25;22.77;;;21.27;;
15905;SDS011;8051;50.820;4.884;2023-08-31T13:35:56;20.60;;;19.30;;
15905;SDS011;8051;50.820;4.884;2023-08-31T13:38:24;20.87;;;19.67;;
15905;SDS011;8051;50.820;4.884;2023-08-31T13:40:53;22.53;;;21.27;;
15905;SDS011;8051;50.820;4.884;2023-08-31T13:43:22;20.80;;;19.53;;
15905;SDS011;8051;50.820;4.884;2023-08-31T13:45:50;19.73;;;18.50;;
15905;SDS011;8051;50.820;4.884;2023-08-31T13:48:17;20.50;;;19.30;;
15905;SDS011;8051;50.820;4.884;2023-08-31T13:50:47;21.50;;;19.97;;
15905;SDS011;8051;50.820;4.884;2023-08-31T13:53:16;20.63;;;19.37;;
15905;SDS011;8051;50.820;4.884;2023-08-31T13:55:44;21.10;;;19.87;;
15905;SDS011;8051;50.820;4.884;2023-08-31T13:58:12;21.87;;;20.50;;
15905;SDS011;8051;50.820;4.884;2023-08-31T14:00:39;20.83;;;19.53;;
15905;SDS011;8051;50.820;4.884;2023-08-31T14:03:07;20.80;;;19.40;;
15905;SDS011;8051;50.820;4.884;2023-08-31T14:05:34;21.50;;;20.00;;
15905;SDS011;8051;50.820;4.884;2023-08-31T14:08:02;20.63;;;19.33;;
15905;SDS011;8051;50.820;4.884;2023-08-31T14:10:31;21.53;;;20.23;;
15905;SDS011;8051;50.820;4.884;2023-08-31T14:12:59;21.40;;;19.83;;
15905;SDS011;8051;50.820;4.884;2023-08-31T14:15:27;19.93;;;18.73;;
15905;SDS011;8051;50.820;4.884;2023-08-31T14:17:54;20.33;;;19.03;;
15905;SDS011;8051;50.820;4.884;2023-08-31T14:20:22;20.50;;;19.30;;
15905;SDS011;8051;50.820;4.884;2023-08-31T14:22:49;19.77;;;18.57;;
15905;SDS011;8051;50.820;4.884;2023-08-31T14:25:17;19.57;;;18.37;;
15905;SDS011;8051;50.820;4.884;2023-08-31T14:27:47;19.60;;;18.50;;
15905;SDS011;8051;50.820;4.884;2023-08-31T14:30:15;22.03;;;19.90;;
15905;SDS011;8051;50.820;4.884;2023-08-31T14:32:42;20.37;;;19.20;;
15905;SDS011;8051;50.820;4.884;2023-08-31T14:35:10;21.03;;;19.57;;
15905;SDS011;8051;50.820;4.884;2023-08-31T14:37:37;21.43;;;19.97;;
15905;SDS011;8051;50.820;4.884;2023-08-31T14:40:05;20.13;;;18.70;;
15905;SDS011;8051;50.820;4.884;2023-08-31T14:42:33;20.43;;;19.13;;
15905;SDS011;8051;50.820;4.884;2023-08-31T14:45:04;21.57;;;20.10;;
15905;SDS011;8051;50.820;4.884;2023-08-31T14:47:32;20.70;;;19.33;;
15905;SDS011;8051;50.820;4.884;2023-08-31T14:50:00;22.40;;;20.77;;
15905;SDS011;8051;50.820;4.884;2023-08-31T14:52:29;21.40;;;19.90;;
15905;SDS011;8051;50.820;4.884;2023-08-31T14:54:57;20.00;;;18.80;;